createdAt,value
2017-04-26T00:00:01.354Z,6.3
2017-04-26T00:01:03.353Z,6.3
2017-04-26T00:02:05.163Z,6.6
2017-04-26T00:03:06.956Z,6.3
2017-04-26T00:04:08.753Z,6.2
2017-04-26T00:05:10.548Z,6.5
2017-04-26T00:06:12.341Z,6.4
2017-04-26T00:07:14.140Z,6.4
2017-04-26T00:08:16.222Z,6.6
2017-04-26T00:09:18.107Z,6.5
2017-04-26T00:10:19.895Z,6.2
2017-04-26T00:11:21.693Z,6
2017-04-26T00:12:23.826Z,6.2
2017-04-26T00:13:26.277Z,6.4
2017-04-26T00:14:28.472Z,6.4
2017-04-26T00:15:30.468Z,6.6
2017-04-26T00:16:32.277Z,6.4
2017-04-26T00:17:34.081Z,6.4
2017-04-26T00:18:35.878Z,6.4
2017-04-26T00:19:37.676Z,6.7
2017-04-26T00:20:39.469Z,6.7
2017-04-26T00:21:41.622Z,6.5
2017-04-26T00:22:43.444Z,6.5
2017-04-26T00:23:45.241Z,6.2
2017-04-26T00:24:47.045Z,6.4
2017-04-26T00:25:48.837Z,6.2
2017-04-26T00:26:50.635Z,6.5
2017-04-26T00:27:52.457Z,6.1
2017-04-26T00:28:54.250Z,5.8
2017-04-26T00:29:56.396Z,6.2
2017-04-26T00:30:58.213Z,6.3
2017-04-26T00:32:00.377Z,6.3
2017-04-26T00:33:02.181Z,6.2
2017-04-26T00:34:03.996Z,6.1
2017-04-26T00:35:06.168Z,6.2
2017-04-26T00:36:07.985Z,6.1
2017-04-26T00:37:09.780Z,6.1
2017-04-26T00:38:12.246Z,6.1
2017-04-26T00:39:14.382Z,5.9
2017-04-26T00:40:16.517Z,6
2017-04-26T00:41:18.328Z,5.8
2017-04-26T00:42:20.140Z,6
2017-04-26T00:43:21.954Z,6.1
2017-04-26T00:44:23.755Z,6.2
2017-04-26T00:45:25.684Z,6.2
2017-04-26T00:46:27.512Z,6.2
2017-04-26T00:47:29.308Z,6.1
2017-04-26T00:48:31.119Z,5.9
2017-04-26T00:49:32.916Z,6.1
2017-04-26T00:50:34.711Z,6.3
2017-04-26T00:51:36.506Z,6.4
2017-04-26T00:52:38.640Z,6
2017-04-26T00:53:40.469Z,5.8
2017-04-26T00:54:42.271Z,6.3
2017-04-26T00:55:44.079Z,6.2
2017-04-26T00:56:45.882Z,6.2
2017-04-26T00:57:47.677Z,6.3
2017-04-26T00:58:49.475Z,6.5
2017-04-26T00:59:51.272Z,6.2
2017-04-26T01:00:53.068Z,6.2
2017-04-26T01:01:54.862Z,6.1
2017-04-26T01:02:56.657Z,6.1
2017-04-26T01:03:58.453Z,6.2
2017-04-26T01:05:00.250Z,6.2
2017-04-26T01:06:02.044Z,6.5
2017-04-26T01:07:03.842Z,6.4
2017-04-26T01:08:06.119Z,6.3
2017-04-26T01:09:08.115Z,6.3
2017-04-26T01:10:10.245Z,6.1
2017-04-26T01:11:12.106Z,5.9
2017-04-26T01:12:14.098Z,6
2017-04-26T01:13:15.945Z,6.1
2017-04-26T01:14:18.147Z,6.1
2017-04-26T01:15:20.345Z,6.3
2017-04-26T01:16:22.142Z,6.1
2017-04-26T01:17:23.937Z,6
2017-04-26T01:18:25.739Z,6.1
2017-04-26T01:19:27.533Z,6.1
2017-04-26T01:20:29.330Z,5.6
2017-04-26T01:21:31.151Z,6
2017-04-26T01:22:32.949Z,6.2
2017-04-26T01:23:34.743Z,6.3
2017-04-26T01:24:36.533Z,6.2
2017-04-26T01:25:38.334Z,5.9
2017-04-26T01:26:40.125Z,5.8
2017-04-26T01:27:41.945Z,5.8
2017-04-26T01:28:44.077Z,5.8
2017-04-26T01:29:45.878Z,5.5
2017-04-26T01:30:47.677Z,5.7
2017-04-26T01:31:49.474Z,5.9
2017-04-26T01:32:51.287Z,5.9
2017-04-26T01:33:53.085Z,5.7
2017-04-26T01:34:54.886Z,5.6
2017-04-26T01:35:57.053Z,5.8
2017-04-26T01:36:58.856Z,5.5
2017-04-26T01:38:00.652Z,5.8
2017-04-26T01:39:02.795Z,5.7
2017-04-26T01:40:04.929Z,5.7
2017-04-26T01:41:06.721Z,6.1
2017-04-26T01:42:08.539Z,5.7
2017-04-26T01:43:10.674Z,6.1
2017-04-26T01:44:12.473Z,5.7
2017-04-26T01:45:14.264Z,5.8
2017-04-26T01:46:16.056Z,6
2017-04-26T01:47:17.849Z,6
2017-04-26T01:48:19.645Z,5.9
2017-04-26T01:49:21.816Z,5.9
2017-04-26T01:50:23.611Z,6.1
2017-04-26T01:51:25.401Z,6.2
2017-04-26T01:52:27.199Z,5.9
2017-04-26T01:53:29.332Z,5.9
2017-04-26T01:54:31.125Z,5.8
2017-04-26T01:55:32.918Z,5.8
2017-04-26T01:56:35.057Z,5.8
2017-04-26T01:57:37.192Z,6.1
2017-04-26T01:58:38.987Z,6.2
2017-04-26T01:59:40.782Z,6
2017-04-26T02:00:42.581Z,6.2
2017-04-26T02:01:44.378Z,6.4
2017-04-26T02:02:46.506Z,6
2017-04-26T02:03:48.299Z,5.9
2017-04-26T02:04:50.096Z,5.7
2017-04-26T02:05:51.890Z,6.1
2017-04-26T02:06:53.684Z,6
2017-04-26T02:07:55.474Z,5.8
2017-04-26T02:08:57.602Z,6
2017-04-26T02:09:59.396Z,6
2017-04-26T02:11:01.546Z,5.9
2017-04-26T02:12:03.700Z,6
2017-04-26T02:13:05.500Z,6.1
2017-04-26T02:14:07.298Z,5.9
2017-04-26T02:15:09.090Z,6.1
2017-04-26T02:16:10.884Z,6
2017-04-26T02:17:12.680Z,6.2
2017-04-26T02:18:14.479Z,6.2
2017-04-26T02:19:16.616Z,6.7
2017-04-26T02:20:18.413Z,6.4
2017-04-26T02:21:20.546Z,6.2
2017-04-26T02:22:22.336Z,6.1
2017-04-26T02:23:24.483Z,6.1
2017-04-26T02:24:26.613Z,6.3
2017-04-26T02:25:28.408Z,6.2
2017-04-26T02:26:30.207Z,6.4
2017-04-26T02:27:32.349Z,6.5
2017-04-26T02:28:34.143Z,6.3
2017-04-26T02:29:36.277Z,6.1
2017-04-26T02:30:38.068Z,6
2017-04-26T02:31:39.864Z,5.7
2017-04-26T02:32:41.657Z,5.9
2017-04-26T02:33:43.797Z,5.6
2017-04-26T02:34:45.937Z,6.2
2017-04-26T02:35:47.735Z,6.3
2017-04-26T02:36:49.531Z,6.5
2017-04-26T02:37:51.328Z,6
2017-04-26T02:38:53.124Z,6
2017-04-26T02:39:55.263Z,5.7
2017-04-26T02:40:57.055Z,5.6
2017-04-26T02:41:58.852Z,5.8
2017-04-26T02:43:00.663Z,5.8
2017-04-26T02:44:02.457Z,5.8
2017-04-26T02:45:04.251Z,5.8
2017-04-26T02:46:06.045Z,5.7
2017-04-26T02:47:07.837Z,5.7
2017-04-26T02:48:09.969Z,5.6
2017-04-26T02:49:11.765Z,5.5
2017-04-26T02:50:13.561Z,5.8
2017-04-26T02:51:15.354Z,5.8
2017-04-26T02:52:17.156Z,5.5
2017-04-26T02:53:18.945Z,5.6
2017-04-26T02:54:20.741Z,5.8
2017-04-26T02:55:22.528Z,5.8
2017-04-26T02:56:24.322Z,6.1
2017-04-26T02:57:26.116Z,6
2017-04-26T02:58:28.583Z,6.2
2017-04-26T02:59:30.374Z,6
2017-04-26T03:00:32.168Z,6.2
2017-04-26T03:01:33.963Z,6.4
2017-04-26T03:02:35.757Z,6.6
2017-04-26T03:03:37.890Z,6.7
2017-04-26T03:04:39.693Z,6.1
2017-04-26T03:05:41.483Z,6
2017-04-26T03:06:43.277Z,6.2
2017-04-26T03:07:45.069Z,6.2
2017-04-26T03:08:46.865Z,6.4
2017-04-26T03:09:48.660Z,6.8
2017-04-26T03:10:50.453Z,6.6
2017-04-26T03:11:52.247Z,6.7
2017-04-26T03:12:54.042Z,6.7
2017-04-26T03:13:56.171Z,6.4
2017-04-26T03:14:57.968Z,6.2
2017-04-26T03:15:59.764Z,6.1
2017-04-26T03:17:01.557Z,6
2017-04-26T03:18:03.352Z,6.5
2017-04-26T03:19:05.488Z,6.5
2017-04-26T03:20:07.279Z,6.3
2017-04-26T03:21:09.073Z,6.2
2017-04-26T03:22:11.205Z,6.5
2017-04-26T03:23:13.003Z,6.2
2017-04-26T03:24:14.797Z,6.1
2017-04-26T03:25:16.941Z,5.7
2017-04-26T03:26:18.734Z,5.7
2017-04-26T03:27:20.529Z,5.9
2017-04-26T03:28:23.005Z,5.7
2017-04-26T03:29:25.149Z,5.9
2017-04-26T03:30:26.945Z,5.9
2017-04-26T03:31:29.073Z,6.3
2017-04-26T03:32:30.864Z,6.2
2017-04-26T03:33:32.663Z,6.2
2017-04-26T03:34:34.454Z,6
2017-04-26T03:35:36.251Z,5.7
2017-04-26T03:36:38.043Z,6.1
2017-04-26T03:37:39.844Z,6
2017-04-26T03:38:41.637Z,6.1
2017-04-26T03:39:43.435Z,6.3
2017-04-26T03:40:45.229Z,6.5
2017-04-26T03:41:47.036Z,6.3
2017-04-26T03:42:49.172Z,6.4
2017-04-26T03:43:50.966Z,6.2
2017-04-26T03:44:52.756Z,6.3
2017-04-26T03:45:54.553Z,6.1
2017-04-26T03:46:56.346Z,6.3
2017-04-26T03:47:58.478Z,5.9
2017-04-26T03:49:00.273Z,5.5
2017-04-26T03:50:02.069Z,5.7
2017-04-26T03:51:03.862Z,5.8
2017-04-26T03:52:05.661Z,5.8
2017-04-26T03:53:07.452Z,6.1
2017-04-26T03:54:09.243Z,6.4
2017-04-26T03:55:11.036Z,6.2
2017-04-26T03:56:12.833Z,5.9
2017-04-26T03:57:14.971Z,5.8
2017-04-26T03:58:16.763Z,5.7
2017-04-26T03:59:18.891Z,6
2017-04-26T04:00:20.687Z,5.8
2017-04-26T04:01:22.480Z,5.6
2017-04-26T04:02:24.276Z,5.7
2017-04-26T04:03:26.069Z,5.8
2017-04-26T04:04:27.867Z,6.1
2017-04-26T04:05:29.659Z,6
2017-04-26T04:06:31.459Z,5.8
2017-04-26T04:07:33.252Z,5.8
2017-04-26T04:08:35.047Z,5.5
2017-04-26T04:09:36.845Z,6.1
2017-04-26T04:10:38.639Z,6.2
2017-04-26T04:11:40.429Z,6
2017-04-26T04:12:42.229Z,6.3
2017-04-26T04:13:44.018Z,5.8
2017-04-26T04:14:46.164Z,5.8
2017-04-26T04:15:47.957Z,6.2
2017-04-26T04:16:49.755Z,5.9
2017-04-26T04:17:51.879Z,5.7
2017-04-26T04:18:53.681Z,5.9
2017-04-26T04:19:55.822Z,6.2
2017-04-26T04:20:57.616Z,6.2
2017-04-26T04:21:59.420Z,5.5
2017-04-26T04:23:01.887Z,5.9
2017-04-26T04:24:03.684Z,5.9
2017-04-26T04:25:05.478Z,5.6
2017-04-26T04:26:07.270Z,5.6
2017-04-26T04:27:09.065Z,5.5
2017-04-26T04:28:10.860Z,5.5
2017-04-26T04:29:12.656Z,5.5
2017-04-26T04:30:14.447Z,5.6
2017-04-26T04:31:16.239Z,5.5
2017-04-26T04:32:18.056Z,5.4
2017-04-26T04:33:19.849Z,5.3
2017-04-26T04:34:21.980Z,5.3
2017-04-26T04:35:23.774Z,5.4
2017-04-26T04:36:25.583Z,5.4
2017-04-26T04:37:27.381Z,5.2
2017-04-26T04:38:29.173Z,5.5
2017-04-26T04:39:30.971Z,5.9
2017-04-26T04:40:33.110Z,5.8
2017-04-26T04:41:34.911Z,5.5
2017-04-26T04:42:36.704Z,5.5
2017-04-26T04:43:38.836Z,5.4
2017-04-26T04:44:41.320Z,5.5
2017-04-26T04:45:43.113Z,5.6
2017-04-26T04:46:44.909Z,5.8
2017-04-26T04:47:47.054Z,5.9
2017-04-26T04:48:48.852Z,5.9
2017-04-26T04:49:50.987Z,6
2017-04-26T04:50:52.783Z,5.9
2017-04-26T04:51:54.576Z,5.7
2017-04-26T04:52:56.369Z,5.7
2017-04-26T04:53:58.195Z,5.7
2017-04-26T04:54:59.989Z,5.7
2017-04-26T04:56:01.782Z,5.7
2017-04-26T04:57:03.574Z,5.6
2017-04-26T04:58:05.677Z,5.6
2017-04-26T04:59:07.472Z,5.7
2017-04-26T05:00:09.267Z,5.8
2017-04-26T05:01:11.074Z,5.9
2017-04-26T05:02:12.882Z,5.9
2017-04-26T05:03:14.678Z,6
2017-04-26T05:04:16.471Z,5.8
2017-04-26T05:05:18.266Z,5.8
2017-04-26T05:06:20.064Z,5.7
2017-04-26T05:07:21.865Z,5.7
2017-04-26T05:08:24.041Z,5.8
2017-04-26T05:09:25.832Z,5.9
2017-04-26T05:10:27.629Z,6.2
2017-04-26T05:11:29.422Z,6.2
2017-04-26T05:12:31.215Z,6.2
2017-04-26T05:13:33.010Z,6.2
2017-04-26T05:14:34.804Z,5.9
2017-04-26T05:15:36.600Z,6
2017-04-26T05:16:38.398Z,6.1
2017-04-26T05:17:40.529Z,6.1
2017-04-26T05:18:43.007Z,6.4
2017-04-26T05:19:44.803Z,6.2
2017-04-26T05:20:46.592Z,6.2
2017-04-26T05:21:48.385Z,6.3
2017-04-26T05:22:50.177Z,6.3
2017-04-26T05:23:51.976Z,6.2
2017-04-26T05:24:54.109Z,6.4
2017-04-26T05:25:55.904Z,6.5
2017-04-26T05:26:57.707Z,6.6
2017-04-26T05:27:59.510Z,6.7
2017-04-26T05:29:01.640Z,6.5
2017-04-26T05:30:03.451Z,6.7
2017-04-26T05:31:05.583Z,6.9
2017-04-26T05:32:08.070Z,6.7
2017-04-26T05:33:09.867Z,6.8
2017-04-26T05:34:11.997Z,6.7
2017-04-26T05:35:13.790Z,6.9
2017-04-26T05:36:15.920Z,6.9
2017-04-26T05:37:17.718Z,6.8
2017-04-26T05:38:19.845Z,6.9
2017-04-26T05:39:21.979Z,7.2
2017-04-26T05:40:24.459Z,7.3
2017-04-26T05:41:26.255Z,7.3
2017-04-26T05:42:28.051Z,7.4
2017-04-26T05:43:29.852Z,7.2
2017-04-26T05:44:31.648Z,7.3
2017-04-26T05:45:33.444Z,7.3
2017-04-26T05:46:35.238Z,7.1
2017-04-26T05:47:37.035Z,7
2017-04-26T05:48:39.186Z,7.1
2017-04-26T05:49:40.982Z,7.1
2017-04-26T05:50:42.777Z,7.4
2017-04-26T05:51:44.565Z,7.5
2017-04-26T05:52:46.359Z,7.3
2017-04-26T05:53:48.153Z,7.3
2017-04-26T05:54:49.948Z,7.3
2017-04-26T05:55:51.746Z,7.7
2017-04-26T05:56:53.572Z,7.8
2017-04-26T05:57:55.371Z,7.8
2017-04-26T05:58:57.516Z,7.9
2017-04-26T05:59:59.314Z,7.7
2017-04-26T06:01:01.108Z,7.7
2017-04-26T06:02:02.908Z,7.3
2017-04-26T06:03:04.708Z,7.1
2017-04-26T06:04:06.502Z,7.5
2017-04-26T06:05:08.303Z,7.5
2017-04-26T06:06:10.098Z,7.3
2017-04-26T06:07:11.898Z,7.2
2017-04-26T06:08:13.693Z,7.7
2017-04-26T06:09:15.491Z,7.4
2017-04-26T06:10:17.286Z,7.1
2017-04-26T06:11:19.083Z,7.6
2017-04-26T06:12:20.880Z,7.7
2017-04-26T06:13:22.677Z,7.8
2017-04-26T06:14:24.476Z,7.6
2017-04-26T06:15:26.271Z,7.4
2017-04-26T06:16:28.074Z,7.7
2017-04-26T06:17:29.868Z,7.9
2017-04-26T06:18:31.939Z,8.3
2017-04-26T06:19:34.023Z,8.2
2017-04-26T06:20:35.826Z,8.6
2017-04-26T06:21:37.891Z,8.4
2017-04-26T06:22:39.929Z,8.1
2017-04-26T06:23:42.080Z,8.3
2017-04-26T06:24:44.228Z,8.3
2017-04-26T06:25:46.024Z,8.3
2017-04-26T06:26:47.829Z,8.2
2017-04-26T06:27:49.625Z,8
2017-04-26T06:28:51.763Z,8
2017-04-26T06:29:53.567Z,8.4
2017-04-26T06:30:55.366Z,8.6
2017-04-26T06:31:57.164Z,8.6
2017-04-26T06:32:59.129Z,8.6
2017-04-26T06:34:01.197Z,8.4
2017-04-26T06:35:03.119Z,8.8
2017-04-26T06:36:05.184Z,8.9
2017-04-26T06:37:07.430Z,9.4
2017-04-26T06:38:09.445Z,9.2
2017-04-26T06:39:11.588Z,9
2017-04-26T06:40:13.392Z,8.6
2017-04-26T06:41:15.190Z,8.7
2017-04-26T06:42:16.986Z,8.7
2017-04-26T06:43:19.120Z,9
2017-04-26T06:44:21.272Z,9.6
2017-04-26T06:45:23.070Z,9.5
2017-04-26T06:46:24.866Z,9.5
2017-04-26T06:47:26.664Z,10.1
2017-04-26T06:48:28.465Z,10.2
2017-04-26T06:49:30.261Z,9.7
2017-04-26T06:50:32.064Z,10.3
2017-04-26T06:51:33.865Z,10.1
2017-04-26T06:52:35.664Z,10.2
2017-04-26T06:53:37.465Z,10.2
2017-04-26T06:54:39.262Z,10
2017-04-26T06:55:41.097Z,9.5
2017-04-26T06:56:42.898Z,9.6
2017-04-26T06:57:45.046Z,9
2017-04-26T06:58:47.187Z,9.6
2017-04-26T06:59:49.000Z,9.6
2017-04-26T07:00:50.801Z,9.6
2017-04-26T07:01:52.602Z,9.5
2017-04-26T07:02:54.399Z,9.7
2017-04-26T07:03:56.197Z,9.7
2017-04-26T07:04:57.999Z,9.6
2017-04-26T07:05:59.799Z,9.3
2017-04-26T07:07:01.603Z,9.4
2017-04-26T07:08:03.399Z,9.7
2017-04-26T07:09:05.199Z,9.6
2017-04-26T07:10:06.997Z,9.6
2017-04-26T07:11:08.798Z,10.2
2017-04-26T07:12:10.597Z,9.8
2017-04-26T07:13:12.395Z,10
2017-04-26T07:14:14.211Z,10
2017-04-26T07:15:16.039Z,10.2
2017-04-26T07:16:17.843Z,10.4
2017-04-26T07:17:19.654Z,10.3
2017-04-26T07:18:21.459Z,10.4
2017-04-26T07:19:23.602Z,9.6
2017-04-26T07:20:25.400Z,9.6
2017-04-26T07:21:27.200Z,10
2017-04-26T07:22:29.000Z,10.5
2017-04-26T07:23:30.803Z,10.3
2017-04-26T07:24:32.608Z,10.6
2017-04-26T07:25:34.411Z,10.3
2017-04-26T07:26:36.209Z,10.9
2017-04-26T07:27:38.005Z,10.9
2017-04-26T07:28:39.803Z,11.2
2017-04-26T07:29:41.606Z,11.2
2017-04-26T07:30:43.756Z,11
2017-04-26T07:31:45.555Z,10.8
2017-04-26T07:32:47.360Z,10.7
2017-04-26T07:33:49.496Z,10.7
2017-04-26T07:34:51.633Z,10.4
2017-04-26T07:35:53.429Z,10.8
2017-04-26T07:36:55.231Z,10.6
2017-04-26T07:37:57.368Z,10.9
2017-04-26T07:38:59.171Z,11.2
2017-04-26T07:40:00.972Z,11.2
2017-04-26T07:41:02.772Z,11.3
2017-04-26T07:42:04.571Z,11.2
2017-04-26T07:43:06.726Z,11.2
2017-04-26T07:44:08.530Z,11.3
2017-04-26T07:45:10.332Z,11.3
2017-04-26T07:46:12.137Z,11
2017-04-26T07:47:13.939Z,11
2017-04-26T07:48:15.747Z,11
2017-04-26T07:49:17.563Z,11.4
2017-04-26T07:50:19.367Z,11
2017-04-26T07:51:21.505Z,11.2
2017-04-26T07:52:23.312Z,11.3
2017-04-26T07:53:25.112Z,11.1
2017-04-26T07:54:26.916Z,11.5
2017-04-26T07:55:28.721Z,11.2
2017-04-26T07:56:30.521Z,11.1
2017-04-26T07:57:32.325Z,11.3
2017-04-26T07:58:34.124Z,11.8
2017-04-26T07:59:35.932Z,11.7
2017-04-26T08:00:37.731Z,11.3
2017-04-26T08:01:39.535Z,11.5
2017-04-26T08:02:41.338Z,11.6
2017-04-26T08:03:43.134Z,11.7
2017-04-26T08:04:44.941Z,11.6
2017-04-26T08:05:46.748Z,11.8
2017-04-26T08:06:48.551Z,11.9
2017-04-26T08:07:50.353Z,11.7
2017-04-26T08:08:52.158Z,11.6
2017-04-26T08:09:53.957Z,11.7
2017-04-26T08:10:55.759Z,12
2017-04-26T08:11:57.560Z,11.9
2017-04-26T08:12:59.365Z,11.6
2017-04-26T08:14:01.172Z,11.7
2017-04-26T08:15:03.320Z,12
2017-04-26T08:16:05.122Z,12
2017-04-26T08:17:06.930Z,12.3
2017-04-26T08:18:08.755Z,12.4
2017-04-26T08:19:10.556Z,12.9
2017-04-26T08:20:12.693Z,12.8
2017-04-26T08:21:14.500Z,12.7
2017-04-26T08:22:16.301Z,12.2
2017-04-26T08:23:18.104Z,12.5
2017-04-26T08:24:19.907Z,12.4
2017-04-26T08:25:21.704Z,11.9
2017-04-26T08:26:23.508Z,12
2017-04-26T08:27:25.317Z,12.3
2017-04-26T08:28:27.120Z,12.5
2017-04-26T08:29:28.921Z,12.3
2017-04-26T08:30:30.725Z,12.2
2017-04-26T08:31:32.529Z,12.4
2017-04-26T08:32:34.333Z,12.8
2017-04-26T08:33:36.137Z,12.3
2017-04-26T08:34:37.939Z,12.8
2017-04-26T08:35:39.747Z,13.1
2017-04-26T08:36:41.553Z,13.5
2017-04-26T08:37:43.356Z,13.1
2017-04-26T08:38:45.497Z,13.5
2017-04-26T08:39:47.302Z,13.8
2017-04-26T08:40:49.445Z,14.1
2017-04-26T08:41:51.257Z,13.8
2017-04-26T08:42:53.063Z,13.7
2017-04-26T08:43:54.870Z,13.1
2017-04-26T08:44:56.696Z,13.2
2017-04-26T08:45:58.522Z,13.1
2017-04-26T08:47:00.327Z,13.5
2017-04-26T08:48:02.135Z,13.6
2017-04-26T08:49:04.273Z,13.6
2017-04-26T08:50:06.082Z,13.1
2017-04-26T08:51:07.889Z,13.5
2017-04-26T08:52:09.697Z,13.4
2017-04-26T08:53:11.495Z,13
2017-04-26T08:54:13.304Z,13
2017-04-26T08:55:15.105Z,12.8
2017-04-26T08:56:16.911Z,12.9
2017-04-26T08:57:19.053Z,12.9
2017-04-26T08:58:20.857Z,12.9
2017-04-26T08:59:22.662Z,13.5
2017-04-26T09:00:24.803Z,13.4
2017-04-26T09:01:26.607Z,13.2
2017-04-26T09:02:28.413Z,13.4
2017-04-26T09:03:30.221Z,13
2017-04-26T09:04:32.028Z,12.8
2017-04-26T09:05:33.841Z,12.8
2017-04-26T09:06:35.642Z,12.5
2017-04-26T09:07:37.453Z,12.9
2017-04-26T09:08:39.260Z,13.2
2017-04-26T09:09:41.085Z,12.8
2017-04-26T09:10:42.897Z,13.2
2017-04-26T09:11:45.044Z,13.4
2017-04-26T09:12:46.851Z,13.3
2017-04-26T09:13:48.998Z,13.5
2017-04-26T09:14:50.800Z,14
2017-04-26T09:15:52.607Z,14.4
2017-04-26T09:16:54.409Z,14.5
2017-04-26T09:17:56.561Z,14.3
2017-04-26T09:18:58.364Z,14.4
2017-04-26T09:20:00.173Z,14.1
2017-04-26T09:21:02.006Z,14.3
2017-04-26T09:22:03.818Z,14.5
2017-04-26T09:23:05.627Z,14.6
2017-04-26T09:24:07.443Z,14.6
2017-04-26T09:25:09.254Z,14.3
2017-04-26T09:26:11.070Z,14.6
2017-04-26T09:27:12.881Z,14.9
2017-04-26T09:28:14.694Z,15.4
2017-04-26T09:29:16.506Z,15.8
2017-04-26T09:30:18.319Z,15.8
2017-04-26T09:31:20.129Z,15.7
2017-04-26T09:32:22.281Z,15.8
2017-04-26T09:33:24.442Z,15.9
2017-04-26T09:34:26.253Z,15
2017-04-26T09:35:28.068Z,15
2017-04-26T09:36:29.882Z,14.8
2017-04-26T09:37:31.698Z,13.8
2017-04-26T09:38:33.515Z,13.6
2017-04-26T09:39:35.324Z,14.2
2017-04-26T09:40:37.139Z,14
2017-04-26T09:41:38.952Z,14.5
2017-04-26T09:42:40.772Z,15.1
2017-04-26T09:43:42.583Z,15.7
2017-04-26T09:44:44.392Z,16.1
2017-04-26T09:45:46.204Z,16.6
2017-04-26T09:46:48.020Z,16.2
2017-04-26T09:47:49.829Z,16.1
2017-04-26T09:48:51.643Z,16.5
2017-04-26T09:49:53.466Z,17
2017-04-26T09:50:55.284Z,17
2017-04-26T09:51:57.101Z,16.6
2017-04-26T09:52:58.914Z,16.8
2017-04-26T09:54:00.731Z,17.1
2017-04-26T09:55:02.547Z,16.6
2017-04-26T09:56:04.369Z,16.1
2017-04-26T09:57:06.191Z,16.1
2017-04-26T09:58:08.005Z,15.3
2017-04-26T09:59:09.822Z,15.2
2017-04-26T10:00:11.643Z,14.9
2017-04-26T10:01:13.452Z,15.6
2017-04-26T10:02:15.264Z,15.5
2017-04-26T10:03:17.102Z,15.7
2017-04-26T10:04:18.921Z,14.6
2017-04-26T10:05:20.733Z,14.6
2017-04-26T10:06:22.886Z,14.7
2017-04-26T10:07:24.703Z,14.4
2017-04-26T10:08:26.521Z,15
2017-04-26T10:09:28.341Z,14.6
2017-04-26T10:10:30.839Z,14.7
2017-04-26T10:11:32.653Z,15.3
2017-04-26T10:12:34.811Z,15.5
2017-04-26T10:13:36.620Z,15.7
2017-04-26T10:15:08.874Z,15.9
2017-04-26T10:16:10.691Z,16.1
2017-04-26T10:17:12.501Z,16.4
2017-04-26T10:18:14.315Z,16.4
2017-04-26T10:19:16.126Z,17.3
2017-04-26T10:20:17.938Z,17.1
2017-04-26T10:21:19.753Z,17.6
2017-04-26T10:22:21.569Z,17.6
2017-04-26T10:23:23.382Z,17.5
2017-04-26T10:24:25.202Z,17.4
2017-04-26T10:25:27.017Z,17.8
2017-04-26T10:26:29.170Z,17.3
2017-04-26T10:27:30.986Z,17.8
2017-04-26T10:28:48.454Z,17.8
2017-04-26T10:29:50.265Z,17.2
2017-04-26T10:31:03.879Z,18
2017-04-26T10:32:05.695Z,18.5
2017-04-26T10:33:07.519Z,18.5
2017-04-26T10:34:09.339Z,18.6
2017-04-26T10:35:11.151Z,19.2
2017-04-26T10:36:13.243Z,19.1
2017-04-26T10:37:15.133Z,19.4
2017-04-26T10:38:16.955Z,18.7
2017-04-26T10:39:18.768Z,18.7
2017-04-26T10:40:20.582Z,19.5
2017-04-26T10:41:22.395Z,19.5
2017-04-26T10:42:24.212Z,19.2
2017-04-26T10:43:26.032Z,19.5
2017-04-26T10:44:28.185Z,18.6
2017-04-26T10:45:30.337Z,18.4
2017-04-26T10:46:32.159Z,17.4
2017-04-26T10:47:33.975Z,17.4
2017-04-26T10:48:35.792Z,17.2
2017-04-26T10:49:37.606Z,17.4
2017-04-26T10:50:39.426Z,17.6
2017-04-26T10:51:41.239Z,17.4
2017-04-26T10:52:43.051Z,16.7
2017-04-26T10:53:44.867Z,16.7
2017-04-26T10:54:46.689Z,16.6
2017-04-26T10:55:48.501Z,16.7
2017-04-26T10:56:50.320Z,16.7
2017-04-26T10:57:52.135Z,16.6
2017-04-26T10:58:54.291Z,16.5
2017-04-26T10:59:56.102Z,15.8
2017-04-26T11:00:57.918Z,15.7
2017-04-26T11:01:59.729Z,15.8
2017-04-26T11:03:01.548Z,15.8
2017-04-26T11:04:03.361Z,15.7
2017-04-26T11:05:05.174Z,16.1
2017-04-26T11:06:06.984Z,15.6
2017-04-26T11:07:08.798Z,15.8
2017-04-26T11:08:10.612Z,15.7
2017-04-26T11:09:12.423Z,15.6
2017-04-26T11:10:14.237Z,15.5
2017-04-26T11:11:16.386Z,15.6
2017-04-26T11:12:18.194Z,15.4
2017-04-26T11:13:20.007Z,15.3
2017-04-26T11:14:21.810Z,14.9
2017-04-26T11:15:23.622Z,15.6
2017-04-26T11:16:25.430Z,15.1
2017-04-26T11:17:27.239Z,15.1
2017-04-26T11:18:29.050Z,14.9
2017-04-26T11:19:30.857Z,14.9
2017-04-26T11:20:32.667Z,15
2017-04-26T11:21:34.479Z,14.9
2017-04-26T11:22:36.299Z,15.2
2017-04-26T11:23:38.109Z,15.1
2017-04-26T11:24:39.917Z,15.4
2017-04-26T11:25:41.729Z,15
2017-04-26T11:26:43.535Z,15.3
2017-04-26T11:27:45.341Z,15
2017-04-26T11:28:47.157Z,15
2017-04-26T11:29:49.307Z,15.8
2017-04-26T11:30:51.115Z,15.6
2017-04-26T11:31:53.258Z,16.3
2017-04-26T11:32:55.067Z,15.7
2017-04-26T11:33:56.900Z,15.6
2017-04-26T11:34:58.709Z,15.6
2017-04-26T11:36:00.857Z,16
2017-04-26T11:37:02.665Z,15.5
2017-04-26T11:38:04.476Z,15
2017-04-26T11:39:06.282Z,14.8
2017-04-26T11:40:08.096Z,14.7
2017-04-26T11:41:09.905Z,14.7
2017-04-26T11:42:11.730Z,14.4
2017-04-26T11:43:13.875Z,14
2017-04-26T11:44:15.680Z,13.7
2017-04-26T11:45:17.490Z,13.8
2017-04-26T11:46:19.299Z,14.3
2017-04-26T11:47:21.104Z,13.9
2017-04-26T11:48:22.908Z,14.1
2017-04-26T11:49:25.390Z,14.6
2017-04-26T11:50:27.532Z,14.6
2017-04-26T11:51:29.342Z,14.5
2017-04-26T11:52:31.147Z,14.8
2017-04-26T11:53:32.954Z,14.6
2017-04-26T11:54:34.767Z,14.7
2017-04-26T11:55:36.578Z,14.8
2017-04-26T11:56:38.382Z,14.7
2017-04-26T11:57:40.187Z,14.5
2017-04-26T11:58:41.996Z,14.1
2017-04-26T11:59:44.147Z,14.2
2017-04-26T12:00:46.288Z,14.1
2017-04-26T12:01:48.098Z,14.3
2017-04-26T12:02:50.244Z,14.4
2017-04-26T12:03:52.070Z,14.8
2017-04-26T12:04:53.877Z,15.2
2017-04-26T12:05:55.685Z,15.6
2017-04-26T12:06:57.492Z,15.5
2017-04-26T12:07:59.302Z,15.9
2017-04-26T12:09:01.107Z,16.1
2017-04-26T12:10:03.261Z,16.6
2017-04-26T12:11:05.071Z,16.6
2017-04-26T12:12:06.883Z,16.6
2017-04-26T12:13:08.688Z,17.3
2017-04-26T12:14:10.498Z,17.1
2017-04-26T12:15:12.304Z,17.7
2017-04-26T12:16:14.120Z,17.8
2017-04-26T12:17:15.943Z,18.4
2017-04-26T12:18:17.754Z,18.3
2017-04-26T12:19:19.569Z,18
2017-04-26T12:20:21.380Z,18.3
2017-04-26T12:21:23.197Z,18.3
2017-04-26T12:22:25.346Z,17.7
2017-04-26T12:23:27.167Z,16.7
2017-04-26T12:24:28.981Z,16.9
2017-04-26T12:25:30.792Z,17.1
2017-04-26T12:26:32.607Z,17
2017-04-26T12:27:34.417Z,17
2017-04-26T12:28:36.239Z,16.7
2017-04-26T12:29:38.052Z,16.3
2017-04-26T12:30:40.211Z,16.7
2017-04-26T12:31:42.018Z,16.5
2017-04-26T12:32:43.839Z,16.9
2017-04-26T12:33:45.654Z,17.3
2017-04-26T12:34:47.463Z,17.8
2017-04-26T12:35:49.625Z,16.8
2017-04-26T12:36:51.461Z,16.8
2017-04-26T12:37:53.625Z,17.1
2017-04-26T12:38:55.769Z,17.7
2017-04-26T12:39:57.582Z,17
2017-04-26T12:40:59.399Z,16.6
2017-04-26T12:42:01.209Z,17.4
2017-04-26T12:43:03.027Z,17.5
2017-04-26T12:44:04.844Z,17.7
2017-04-26T12:45:06.656Z,16.6
2017-04-26T12:46:08.469Z,16.5
2017-04-26T12:47:10.279Z,16.2
2017-04-26T12:48:12.091Z,15.6
2017-04-26T12:49:13.903Z,15.1
2017-04-26T12:50:15.722Z,15.2
2017-04-26T12:51:17.532Z,14.6
2017-04-26T12:52:19.362Z,14.4
2017-04-26T12:53:21.171Z,14.3
2017-04-26T12:54:22.978Z,14
2017-04-26T12:55:24.793Z,14.2
2017-04-26T12:56:26.599Z,14.2
2017-04-26T12:57:28.409Z,14.2
2017-04-26T12:58:30.222Z,14
2017-04-26T12:59:32.034Z,14.2
2017-04-26T13:00:33.843Z,14.5
2017-04-26T13:01:35.645Z,14.4
2017-04-26T13:02:37.458Z,14
2017-04-26T13:03:39.267Z,14
2017-04-26T13:04:41.077Z,13.9
2017-04-26T13:05:42.888Z,14.1
2017-04-26T13:06:44.692Z,14.1
2017-04-26T13:07:46.497Z,14.4
2017-04-26T13:08:48.304Z,14.2
2017-04-26T13:09:50.455Z,14.5
2017-04-26T13:10:52.599Z,14.4
2017-04-26T13:11:54.404Z,14.5
2017-04-26T13:12:56.208Z,14.3
2017-04-26T13:13:58.017Z,14.4
2017-04-26T13:14:59.826Z,14.9
2017-04-26T13:16:01.629Z,14.4
2017-04-26T13:17:03.449Z,14.8
2017-04-26T13:18:05.261Z,15
2017-04-26T13:19:07.073Z,14.8
2017-04-26T13:20:08.877Z,15.7
2017-04-26T13:21:11.025Z,15.6
2017-04-26T13:22:12.831Z,16.4
2017-04-26T13:23:14.643Z,16.2
2017-04-26T13:24:16.448Z,16.3
2017-04-26T13:25:18.597Z,16.1
2017-04-26T13:26:20.407Z,16.2
2017-04-26T13:27:22.554Z,16.5
2017-04-26T13:28:24.362Z,16.7
2017-04-26T13:29:26.506Z,16.7
2017-04-26T13:30:28.319Z,17
2017-04-26T13:31:30.133Z,17.5
2017-04-26T13:32:31.940Z,17.6
2017-04-26T13:33:33.752Z,17.7
2017-04-26T13:34:35.557Z,17.9
2017-04-26T13:35:37.368Z,17.7
2017-04-26T13:36:39.179Z,17.6
2017-04-26T13:37:40.993Z,17.8
2017-04-26T13:38:42.804Z,18.4
2017-04-26T13:39:44.957Z,18.1
2017-04-26T13:40:46.773Z,18.2
2017-04-26T13:41:48.619Z,18
2017-04-26T13:42:50.430Z,18.2
2017-04-26T13:43:52.249Z,19
2017-04-26T13:44:54.065Z,19
2017-04-26T13:45:56.217Z,19.2
2017-04-26T13:46:58.029Z,19.4
2017-04-26T13:47:59.850Z,19.7
2017-04-26T13:49:01.667Z,19.9
2017-04-26T13:50:03.484Z,20.8
2017-04-26T13:51:05.299Z,20.5
2017-04-26T13:52:07.115Z,20.3
2017-04-26T13:53:08.933Z,20.3
2017-04-26T13:54:10.750Z,20.1
2017-04-26T13:55:12.572Z,20.4
2017-04-26T13:56:14.385Z,19.5
2017-04-26T13:57:16.201Z,19.4
2017-04-26T13:58:18.019Z,19.2
2017-04-26T13:59:19.834Z,19.8
2017-04-26T14:00:21.655Z,19.9
2017-04-26T14:01:23.480Z,19.7
2017-04-26T14:02:25.303Z,18.9
2017-04-26T14:03:27.123Z,19